sensor_id;sensor_type;location;lat;lon;timestamp;temperature;humidity
21612;DHT22;47005;52.292;13.452;2023-03-31T00:02:00;11.10;99.90
21612;DHT22;47005;52.292;13.452;2023-03-31T00:04:27;11.10;99.90
21612;DHT22;47005;52.292;13.452;2023-03-31T00:06:53;11.10;99.90
21612;DHT22;47005;52.292;13.452;2023-03-31T00:09:20;11.10;99.90
21612;DHT22;47005;52.292;13.452;2023-03-31T00:11:49;11.20;99.90
21612;DHT22;47005;52.292;13.452;2023-03-31T00:14:17;11.10;99.90
21612;DHT22;47005;52.292;13.452;2023-03-31T00:16:43;11.10;99.90
21612;DHT22;47005;52.292;13.452;2023-03-31T00:19:11;11.10;99.90
21612;DHT22;47005;52.292;13.452;2023-03-31T00:21:43;11.00;99.90
21612;DHT22;47005;52.292;13.452;2023-03-31T00:24:09;11.10;99.90
21612;DHT22;47005;52.292;13.452;2023-03-31T00:26:36;11.10;99.90
21612;DHT22;47005;52.292;13.452;2023-03-31T00:29:04;11.10;99.90
21612;DHT22;47005;52.292;13.452;2023-03-31T00:31:30;11.10;99.90
21612;DHT22;47005;52.292;13.452;2023-03-31T00:33:56;11.10;99.90
21612;DHT22;47005;52.292;13.452;2023-03-31T00:36:22;11.10;99.90
21612;DHT22;47005;52.292;13.452;2023-03-31T00:39:02;11.20;99.90
21612;DHT22;47005;52.292;13.452;2023-03-31T00:41:30;11.20;99.90
21612;DHT22;47005;52.292;13.452;2023-03-31T00:44:15;11.10;99.90
21612;DHT22;47005;52.292;13.452;2023-03-31T00:49:53;11.10;99.90
21612;DHT22;47005;52.292;13.452;2023-03-31T00:52:22;11.00;99.90
21612;DHT22;47005;52.292;13.452;2023-03-31T00:54:55;11.00;99.90
21612;DHT22;47005;52.292;13.452;2023-03-31T00:57:22;11.00;99.90
21612;DHT22;47005;52.292;13.452;2023-03-31T00:59:51;11.00;99.90
21612;DHT22;47005;52.292;13.452;2023-03-31T01:02:18;11.00;99.90
21612;DHT22;47005;52.292;13.452;2023-03-31T01:04:52;11.00;99.90
21612;DHT22;47005;52.292;13.452;2023-03-31T01:07:38;10.90;99.90
21612;DHT22;47005;52.292;13.452;2023-03-31T01:10:06;10.90;99.90
21612;DHT22;47005;52.292;13.452;2023-03-31T01:12:36;10.90;99.90
21612;DHT22;47005;52.292;13.452;2023-03-31T01:15:03;10.80;99.90
21612;DHT22;47005;52.292;13.452;2023-03-31T01:17:29;10.80;99.90
21612;DHT22;47005;52.292;13.452;2023-03-31T01:20:01;10.80;99.90
21612;DHT22;47005;52.292;13.452;2023-03-31T01:28:16;10.80;99.90
21612;DHT22;47005;52.292;13.452;2023-03-31T01:37:18;10.70;99.90
21612;DHT22;47005;52.292;13.452;2023-03-31T01:44:54;10.70;99.90
21612;DHT22;47005;52.292;13.452;2023-03-31T01:50:42;10.80;99.90
21612;DHT22;47005;52.292;13.452;2023-03-31T01:53:21;10.70;99.90
21612;DHT22;47005;52.292;13.452;2023-03-31T01:58:35;10.70;99.90
21612;DHT22;47005;52.292;13.452;2023-03-31T02:01:30;10.70;99.90
21612;DHT22;47005;52.292;13.452;2023-03-31T02:04:02;10.70;99.90
21612;DHT22;47005;52.292;13.452;2023-03-31T02:06:34;10.70;99.90
21612;DHT22;47005;52.292;13.452;2023-03-31T02:09:03;10.70;99.90
21612;DHT22;47005;52.292;13.452;2023-03-31T02:11:31;10.70;99.90
21612;DHT22;47005;52.292;13.452;2023-03-31T02:13:59;10.70;99.90
21612;DHT22;47005;52.292;13.452;2023-03-31T02:16:31;10.80;99.90
21612;DHT22;47005;52.292;13.452;2023-03-31T02:19:01;10.80;99.90
21612;DHT22;47005;52.292;13.452;2023-03-31T02:21:30;10.80;99.90
21612;DHT22;47005;52.292;13.452;2023-03-31T02:23:58;10.80;99.90
21612;DHT22;47005;52.292;13.452;2023-03-31T02:26:28;10.80;99.90
21612;DHT22;47005;52.292;13.452;2023-03-31T02:28:55;10.80;99.90
21612;DHT22;47005;52.292;13.452;2023-03-31T02:31:52;10.80;99.90
21612;DHT22;47005;52.292;13.452;2023-03-31T02:34:20;10.80;99.90
21612;DHT22;47005;52.292;13.452;2023-03-31T02:36:47;10.80;99.90
21612;DHT22;47005;52.292;13.452;2023-03-31T02:39:22;10.80;99.90
21612;DHT22;47005;52.292;13.452;2023-03-31T02:41:49;10.80;99.90
21612;DHT22;47005;52.292;13.452;2023-03-31T02:44:16;10.80;99.90
21612;DHT22;47005;52.292;13.452;2023-03-31T02:46:42;10.80;99.90
21612;DHT22;47005;52.292;13.452;2023-03-31T02:49:09;10.80;99.90
21612;DHT22;47005;52.292;13.452;2023-03-31T02:57:38;10.80;99.90
21612;DHT22;47005;52.292;13.452;2023-03-31T03:11:15;10.80;99.90
21612;DHT22;47005;52.292;13.452;2023-03-31T03:13:50;10.80;99.90
21612;DHT22;47005;52.292;13.452;2023-03-31T03:16:24;10.80;99.90
21612;DHT22;47005;52.292;13.452;2023-03-31T03:19:03;10.80;99.90
21612;DHT22;47005;52.292;13.452;2023-03-31T03:21:30;10.80;99.90
21612;DHT22;47005;52.292;13.452;2023-03-31T03:23:56;10.80;99.90
21612;DHT22;47005;52.292;13.452;2023-03-31T03:26:22;10.80;99.90
21612;DHT22;47005;52.292;13.452;2023-03-31T03:28:51;10.80;99.90
21612;DHT22;47005;52.292;13.452;2023-03-31T03:31:18;10.80;99.90
21612;DHT22;47005;52.292;13.452;2023-03-31T03:33:44;10.80;99.90
21612;DHT22;47005;52.292;13.452;2023-03-31T03:36:09;10.80;99.90
21612;DHT22;47005;52.292;13.452;2023-03-31T03:38:35;10.80;99.90
21612;DHT22;47005;52.292;13.452;2023-03-31T03:41:01;10.80;99.90
21612;DHT22;47005;52.292;13.452;2023-03-31T03:43:27;10.80;99.90
21612;DHT22;47005;52.292;13.452;2023-03-31T03:45:53;10.80;99.90
21612;DHT22;47005;52.292;13.452;2023-03-31T03:48:18;10.80;99.90
21612;DHT22;47005;52.292;13.452;2023-03-31T03:50:45;10.80;99.90
21612;DHT22;47005;52.292;13.452;2023-03-31T03:53:12;10.80;99.90
21612;DHT22;47005;52.292;13.452;2023-03-31T03:55:38;10.80;99.90
21612;DHT22;47005;52.292;13.452;2023-03-31T03:58:03;10.80;99.90
21612;DHT22;47005;52.292;13.452;2023-03-31T04:00:29;10.80;99.90
21612;DHT22;47005;52.292;13.452;2023-03-31T04:02:55;10.80;99.90
21612;DHT22;47005;52.292;13.452;2023-03-31T04:05:21;10.80;99.90
21612;DHT22;47005;52.292;13.452;2023-03-31T04:07:46;10.80;99.90
21612;DHT22;47005;52.292;13.452;2023-03-31T04:10:13;10.80;99.90
21612;DHT22;47005;52.292;13.452;2023-03-31T04:12:39;10.70;99.90
21612;DHT22;47005;52.292;13.452;2023-03-31T04:15:05;10.70;99.90
21612;DHT22;47005;52.292;13.452;2023-03-31T04:17:31;10.60;99.90
21612;DHT22;47005;52.292;13.452;2023-03-31T04:20:00;10.60;99.90
21612;DHT22;47005;52.292;13.452;2023-03-31T04:22:30;10.60;99.90
21612;DHT22;47005;52.292;13.452;2023-03-31T04:25:03;10.60;99.90
21612;DHT22;47005;52.292;13.452;2023-03-31T04:27:30;10.60;99.90
21612;DHT22;47005;52.292;13.452;2023-03-31T04:29:57;10.60;99.90
21612;DHT22;47005;52.292;13.452;2023-03-31T04:32:22;10.50;99.90
21612;DHT22;47005;52.292;13.452;2023-03-31T04:34:48;10.50;99.90
21612;DHT22;47005;52.292;13.452;2023-03-31T04:37:15;10.50;99.90
21612;DHT22;47005;52.292;13.452;2023-03-31T04:39:41;10.50;99.90
21612;DHT22;47005;52.292;13.452;2023-03-31T04:42:11;10.40;99.90
21612;DHT22;47005;52.292;13.452;2023-03-31T04:44:37;10.40;99.90
21612;DHT22;47005;52.292;13.452;2023-03-31T04:47:03;10.40;99.90
21612;DHT22;47005;52.292;13.452;2023-03-31T04:49:33;10.30;99.90
21612;DHT22;47005;52.292;13.452;2023-03-31T04:52:00;10.30;99.90
21612;DHT22;47005;52.292;13.452;2023-03-31T04:54:25;10.30;99.90
21612;DHT22;47005;52.292;13.452;2023-03-31T04:56:51;10.30;99.90
21612;DHT22;47005;52.292;13.452;2023-03-31T04:59:17;10.30;99.90
21612;DHT22;47005;52.292;13.452;2023-03-31T05:01:42;10.20;99.90
21612;DHT22;47005;52.292;13.452;2023-03-31T05:04:10;10.20;99.90
21612;DHT22;47005;52.292;13.452;2023-03-31T05:06:35;10.20;99.90
21612;DHT22;47005;52.292;13.452;2023-03-31T05:09:01;10.20;99.90
21612;DHT22;47005;52.292;13.452;2023-03-31T05:11:27;10.20;99.90
21612;DHT22;47005;52.292;13.452;2023-03-31T05:13:53;10.20;99.90
21612;DHT22;47005;52.292;13.452;2023-03-31T05:16:19;10.20;99.90
21612;DHT22;47005;52.292;13.452;2023-03-31T05:18:44;10.20;99.90
21612;DHT22;47005;52.292;13.452;2023-03-31T05:21:12;10.20;99.90
21612;DHT22;47005;52.292;13.452;2023-03-31T05:23:38;10.20;99.90
21612;DHT22;47005;52.292;13.452;2023-03-31T05:26:04;10.20;99.90
21612;DHT22;47005;52.292;13.452;2023-03-31T05:28:30;10.10;99.90
21612;DHT22;47005;52.292;13.452;2023-03-31T05:30:58;10.10;99.90
21612;DHT22;47005;52.292;13.452;2023-03-31T05:33:26;10.20;99.90
21612;DHT22;47005;52.292;13.452;2023-03-31T05:35:51;10.20;99.90
21612;DHT22;47005;52.292;13.452;2023-03-31T05:38:17;10.20;99.90
21612;DHT22;47005;52.292;13.452;2023-03-31T05:40:43;10.20;99.90
21612;DHT22;47005;52.292;13.452;2023-03-31T05:43:08;10.20;99.90
21612;DHT22;47005;52.292;13.452;2023-03-31T05:45:34;10.20;99.90
21612;DHT22;47005;52.292;13.452;2023-03-31T05:47:59;10.20;99.90
21612;DHT22;47005;52.292;13.452;2023-03-31T05:50:26;10.30;99.90
21612;DHT22;47005;52.292;13.452;2023-03-31T05:52:51;10.30;99.90
21612;DHT22;47005;52.292;13.452;2023-03-31T05:55:17;10.30;99.90
21612;DHT22;47005;52.292;13.452;2023-03-31T05:57:43;10.30;99.90
21612;DHT22;47005;52.292;13.452;2023-03-31T06:00:09;10.30;99.90
21612;DHT22;47005;52.292;13.452;2023-03-31T06:02:36;10.40;99.90
21612;DHT22;47005;52.292;13.452;2023-03-31T06:05:02;10.40;99.90
21612;DHT22;47005;52.292;13.452;2023-03-31T06:07:28;10.40;99.90
21612;DHT22;47005;52.292;13.452;2023-03-31T06:09:54;10.40;99.90
21612;DHT22;47005;52.292;13.452;2023-03-31T06:12:19;10.40;99.90
21612;DHT22;47005;52.292;13.452;2023-03-31T06:14:45;10.40;99.90
21612;DHT22;47005;52.292;13.452;2023-03-31T06:17:11;10.40;99.90
21612;DHT22;47005;52.292;13.452;2023-03-31T06:19:37;10.40;99.90
21612;DHT22;47005;52.292;13.452;2023-03-31T06:22:02;10.50;99.90
21612;DHT22;47005;52.292;13.452;2023-03-31T06:24:28;10.50;99.90
21612;DHT22;47005;52.292;13.452;2023-03-31T06:26:53;10.40;99.90
21612;DHT22;47005;52.292;13.452;2023-03-31T06:29:19;10.50;99.90
21612;DHT22;47005;52.292;13.452;2023-03-31T06:31:45;10.50;99.90
21612;DHT22;47005;52.292;13.452;2023-03-31T06:34:11;10.50;99.90
21612;DHT22;47005;52.292;13.452;2023-03-31T06:36:36;10.50;99.90
21612;DHT22;47005;52.292;13.452;2023-03-31T06:39:02;10.50;99.90
21612;DHT22;47005;52.292;13.452;2023-03-31T06:41:28;10.50;99.90
21612;DHT22;47005;52.292;13.452;2023-03-31T06:43:53;10.60;99.90
21612;DHT22;47005;52.292;13.452;2023-03-31T06:46:19;10.60;99.90
21612;DHT22;47005;52.292;13.452;2023-03-31T06:48:45;10.60;99.90
21612;DHT22;47005;52.292;13.452;2023-03-31T06:51:11;10.60;99.90
21612;DHT22;47005;52.292;13.452;2023-03-31T06:53:37;10.60;99.90
21612;DHT22;47005;52.292;13.452;2023-03-31T06:56:04;10.60;99.90
21612;DHT22;47005;52.292;13.452;2023-03-31T06:58:31;10.70;99.90
21612;DHT22;47005;52.292;13.452;2023-03-31T07:00:56;10.70;99.90
21612;DHT22;47005;52.292;13.452;2023-03-31T07:03:22;10.80;99.90
21612;DHT22;47005;52.292;13.452;2023-03-31T07:05:50;10.80;99.90
21612;DHT22;47005;52.292;13.452;2023-03-31T07:08:17;10.80;99.90
21612;DHT22;47005;52.292;13.452;2023-03-31T07:10:43;10.90;99.90
21612;DHT22;47005;52.292;13.452;2023-03-31T07:13:14;10.90;99.90
21612;DHT22;47005;52.292;13.452;2023-03-31T07:15:49;11.00;99.90
21612;DHT22;47005;52.292;13.452;2023-03-31T07:18:16;10.90;99.90
21612;DHT22;47005;52.292;13.452;2023-03-31T07:20:42;11.00;99.90
21612;DHT22;47005;52.292;13.452;2023-03-31T07:23:08;11.00;99.90
21612;DHT22;47005;52.292;13.452;2023-03-31T07:25:34;11.00;99.90
21612;DHT22;47005;52.292;13.452;2023-03-31T07:28:00;11.10;99.90
21612;DHT22;47005;52.292;13.452;2023-03-31T07:30:26;11.10;99.90
21612;DHT22;47005;52.292;13.452;2023-03-31T07:32:52;11.20;99.90
21612;DHT22;47005;52.292;13.452;2023-03-31T07:35:19;11.20;99.90
21612;DHT22;47005;52.292;13.452;2023-03-31T07:37:47;11.30;99.90
21612;DHT22;47005;52.292;13.452;2023-03-31T07:40:17;11.30;99.90
21612;DHT22;47005;52.292;13.452;2023-03-31T07:42:43;11.30;99.90
21612;DHT22;47005;52.292;13.452;2023-03-31T07:45:09;11.30;99.90
21612;DHT22;47005;52.292;13.452;2023-03-31T07:47:35;11.40;99.90
21612;DHT22;47005;52.292;13.452;2023-03-31T07:50:02;11.40;99.90
21612;DHT22;47005;52.292;13.452;2023-03-31T07:52:27;11.40;99.90
21612;DHT22;47005;52.292;13.452;2023-03-31T07:54:53;11.50;99.90
21612;DHT22;47005;52.292;13.452;2023-03-31T07:57:18;11.50;99.90
21612;DHT22;47005;52.292;13.452;2023-03-31T07:59:47;11.60;99.90
21612;DHT22;47005;52.292;13.452;2023-03-31T08:02:14;11.60;99.90
21612;DHT22;47005;52.292;13.452;2023-03-31T08:04:41;11.70;99.90
21612;DHT22;47005;52.292;13.452;2023-03-31T08:07:08;11.70;99.90
21612;DHT22;47005;52.292;13.452;2023-03-31T08:09:34;11.70;99.90
21612;DHT22;47005;52.292;13.452;2023-03-31T08:11:59;11.80;99.90
21612;DHT22;47005;52.292;13.452;2023-03-31T08:14:25;11.80;99.90
21612;DHT22;47005;52.292;13.452;2023-03-31T08:16:51;11.90;99.90
21612;DHT22;47005;52.292;13.452;2023-03-31T08:19:20;11.90;99.90
21612;DHT22;47005;52.292;13.452;2023-03-31T08:21:46;11.90;99.90
21612;DHT22;47005;52.292;13.452;2023-03-31T08:24:12;12.00;99.90
21612;DHT22;47005;52.292;13.452;2023-03-31T08:26:40;12.00;99.90
21612;DHT22;47005;52.292;13.452;2023-03-31T08:29:06;12.00;99.90
21612;DHT22;47005;52.292;13.452;2023-03-31T08:31:32;12.10;99.90
21612;DHT22;47005;52.292;13.452;2023-03-31T08:33:58;12.20;99.90
21612;DHT22;47005;52.292;13.452;2023-03-31T08:36:24;12.20;99.90
21612;DHT22;47005;52.292;13.452;2023-03-31T08:38:50;12.30;99.90
21612;DHT22;47005;52.292;13.452;2023-03-31T08:43:57;12.30;99.90
21612;DHT22;47005;52.292;13.452;2023-03-31T08:46:26;12.40;99.90
21612;DHT22;47005;52.292;13.452;2023-03-31T08:48:57;12.40;99.90
21612;DHT22;47005;52.292;13.452;2023-03-31T08:51:37;12.40;99.90
21612;DHT22;47005;52.292;13.452;2023-03-31T08:56:56;12.50;99.90
21612;DHT22;47005;52.292;13.452;2023-03-31T08:59:29;12.50;99.90
21612;DHT22;47005;52.292;13.452;2023-03-31T09:16:03;12.70;99.90
21612;DHT22;47005;52.292;13.452;2023-03-31T09:18:34;12.80;99.90
21612;DHT22;47005;52.292;13.452;2023-03-31T09:32:17;13.00;99.90
21612;DHT22;47005;52.292;13.452;2023-03-31T09:34:45;13.00;99.90
21612;DHT22;47005;52.292;13.452;2023-03-31T09:37:11;13.00;99.90
21612;DHT22;47005;52.292;13.452;2023-03-31T09:39:38;13.10;99.90
21612;DHT22;47005;52.292;13.452;2023-03-31T09:42:04;13.10;99.90
21612;DHT22;47005;52.292;13.452;2023-03-31T09:44:40;13.20;99.90
21612;DHT22;47005;52.292;13.452;2023-03-31T09:47:14;13.20;99.90
21612;DHT22;47005;52.292;13.452;2023-03-31T09:49:44;13.20;99.90
21612;DHT22;47005;52.292;13.452;2023-03-31T09:52:29;13.30;99.90
21612;DHT22;47005;52.292;13.452;2023-03-31T09:54:59;13.30;99.90
21612;DHT22;47005;52.292;13.452;2023-03-31T09:57:38;13.30;99.90
21612;DHT22;47005;52.292;13.452;2023-03-31T10:00:16;13.40;99.90
21612;DHT22;47005;52.292;13.452;2023-03-31T10:03:02;13.40;99.90
21612;DHT22;47005;52.292;13.452;2023-03-31T10:05:34;13.40;99.90
21612;DHT22;47005;52.292;13.452;2023-03-31T10:08:12;13.40;99.90
21612;DHT22;47005;52.292;13.452;2023-03-31T10:10:44;13.50;99.90
21612;DHT22;47005;52.292;13.452;2023-03-31T10:13:18;13.60;99.90
21612;DHT22;47005;52.292;13.452;2023-03-31T10:15:44;13.60;99.90
21612;DHT22;47005;52.292;13.452;2023-03-31T10:18:14;13.70;99.90
21612;DHT22;47005;52.292;13.452;2023-03-31T10:20:49;13.70;99.90
21612;DHT22;47005;52.292;13.452;2023-03-31T10:23:28;13.80;99.90
21612;DHT22;47005;52.292;13.452;2023-03-31T10:25:54;13.90;99.90
21612;DHT22;47005;52.292;13.452;2023-03-31T10:28:21;13.90;99.90
21612;DHT22;47005;52.292;13.452;2023-03-31T10:30:53;14.00;99.90
21612;DHT22;47005;52.292;13.452;2023-03-31T10:33:25;14.00;99.90
21612;DHT22;47005;52.292;13.452;2023-03-31T10:36:21;14.00;99.90
21612;DHT22;47005;52.292;13.452;2023-03-31T10:38:50;14.00;99.90
21612;DHT22;47005;52.292;13.452;2023-03-31T10:41:21;14.00;99.90
21612;DHT22;47005;52.292;13.452;2023-03-31T10:43:53;14.00;99.90
21612;DHT22;47005;52.292;13.452;2023-03-31T10:46:19;13.90;99.90
21612;DHT22;47005;52.292;13.452;2023-03-31T10:48:46;13.90;99.90
21612;DHT22;47005;52.292;13.452;2023-03-31T10:53:49;13.80;99.90
21612;DHT22;47005;52.292;13.452;2023-03-31T11:23:43;14.10;99.90
21612;DHT22;47005;52.292;13.452;2023-03-31T11:34:23;14.30;99.90
21612;DHT22;47005;52.292;13.452;2023-03-31T11:42:53;14.30;99.90
21612;DHT22;47005;52.292;13.452;2023-03-31T11:45:29;14.30;99.90
21612;DHT22;47005;52.292;13.452;2023-03-31T11:48:02;14.30;99.90
21612;DHT22;47005;52.292;13.452;2023-03-31T11:50:35;14.30;99.90
21612;DHT22;47005;52.292;13.452;2023-03-31T11:53:31;14.30;99.90
21612;DHT22;47005;52.292;13.452;2023-03-31T11:55:58;14.20;99.90
21612;DHT22;47005;52.292;13.452;2023-03-31T11:58:36;14.20;99.90
21612;DHT22;47005;52.292;13.452;2023-03-31T12:01:13;14.20;99.90
21612;DHT22;47005;52.292;13.452;2023-03-31T12:04:44;14.30;99.90
21612;DHT22;47005;52.292;13.452;2023-03-31T12:06:40;14.20;99.90
21612;DHT22;47005;52.292;13.452;2023-03-31T12:09:51;14.20;99.90
21612;DHT22;47005;52.292;13.452;2023-03-31T12:14:47;14.10;99.90
21612;DHT22;47005;52.292;13.452;2023-03-31T12:17:25;13.90;99.90
21612;DHT22;47005;52.292;13.452;2023-03-31T12:19:59;13.90;99.90
21612;DHT22;47005;52.292;13.452;2023-03-31T12:24:58;13.60;99.90
21612;DHT22;47005;52.292;13.452;2023-03-31T12:27:38;13.50;99.90
21612;DHT22;47005;52.292;13.452;2023-03-31T12:30:17;13.50;99.90
21612;DHT22;47005;52.292;13.452;2023-03-31T12:35:26;13.40;99.90
21612;DHT22;47005;52.292;13.452;2023-03-31T12:38:26;13.40;99.90
21612;DHT22;47005;52.292;13.452;2023-03-31T12:43:50;13.40;99.90
21612;DHT22;47005;52.292;13.452;2023-03-31T13:01:07;13.20;99.90
21612;DHT22;47005;52.292;13.452;2023-03-31T13:03:42;13.20;99.90
21612;DHT22;47005;52.292;13.452;2023-03-31T13:11:42;13.00;99.90
21612;DHT22;47005;52.292;13.452;2023-03-31T13:16:40;12.90;99.90
21612;DHT22;47005;52.292;13.452;2023-03-31T13:19:06;12.80;99.90
21612;DHT22;47005;52.292;13.452;2023-03-31T13:21:51;12.80;99.90
21612;DHT22;47005;52.292;13.452;2023-03-31T13:24:21;12.80;99.90
21612;DHT22;47005;52.292;13.452;2023-03-31T13:26:47;12.70;99.90
21612;DHT22;47005;52.292;13.452;2023-03-31T13:34:39;12.60;99.90
21612;DHT22;47005;52.292;13.452;2023-03-31T13:40:36;12.50;99.90
21612;DHT22;47005;52.292;13.452;2023-03-31T13:52:04;12.30;99.90
21612;DHT22;47005;52.292;13.452;2023-03-31T13:57:50;12.30;99.90
21612;DHT22;47005;52.292;13.452;2023-03-31T14:03:50;12.20;99.90
21612;DHT22;47005;52.292;13.452;2023-03-31T14:06:38;12.20;99.90
21612;DHT22;47005;52.292;13.452;2023-03-31T14:09:27;12.10;99.90
21612;DHT22;47005;52.292;13.452;2023-03-31T14:11:53;12.10;99.90
21612;DHT22;47005;52.292;13.452;2023-03-31T14:14:20;12.00;99.90
21612;DHT22;47005;52.292;13.452;2023-03-31T14:16:54;12.00;99.90
21612;DHT22;47005;52.292;13.452;2023-03-31T14:25:31;12.00;99.90
21612;DHT22;47005;52.292;13.452;2023-03-31T14:36:32;11.90;99.90
21612;DHT22;47005;52.292;13.452;2023-03-31T14:39:05;11.90;99.90
21612;DHT22;47005;52.292;13.452;2023-03-31T14:41:33;11.90;99.90
21612;DHT22;47005;52.292;13.452;2023-03-31T14:44:04;11.90;99.90
21612;DHT22;47005;52.292;13.452;2023-03-31T14:46:35;11.90;99.90
21612;DHT22;47005;52.292;13.452;2023-03-31T14:51:42;11.90;99.90
21612;DHT22;47005;52.292;13.452;2023-03-31T14:54:15;11.90;99.90
21612;DHT22;47005;52.292;13.452;2023-03-31T14:56:42;11.90;99.90
21612;DHT22;47005;52.292;13.452;2023-03-31T14:59:08;11.90;99.90
21612;DHT22;47005;52.292;13.452;2023-03-31T15:01:35;11.90;99.90
21612;DHT22;47005;52.292;13.452;2023-03-31T15:04:10;11.90;99.90
21612;DHT22;47005;52.292;13.452;2023-03-31T15:06:39;11.90;99.90
21612;DHT22;47005;52.292;13.452;2023-03-31T15:09:07;11.90;99.90
21612;DHT22;47005;52.292;13.452;2023-03-31T15:11:35;11.90;99.90
21612;DHT22;47005;52.292;13.452;2023-03-31T15:14:01;11.90;99.90
21612;DHT22;47005;52.292;13.452;2023-03-31T15:16:44;12.00;99.90
21612;DHT22;47005;52.292;13.452;2023-03-31T15:19:21;12.00;99.90
21612;DHT22;47005;52.292;13.452;2023-03-31T15:21:55;12.00;99.90
21612;DHT22;47005;52.292;13.452;2023-03-31T15:24:22;12.00;99.90
21612;DHT22;47005;52.292;13.452;2023-03-31T15:27:11;12.00;99.90
21612;DHT22;47005;52.292;13.452;2023-03-31T15:29:45;12.00;99.90
21612;DHT22;47005;52.292;13.452;2023-03-31T15:32:26;11.90;99.90
21612;DHT22;47005;52.292;13.452;2023-03-31T15:34:53;11.90;99.90
21612;DHT22;47005;52.292;13.452;2023-03-31T15:37:27;12.00;99.90
21612;DHT22;47005;52.292;13.452;2023-03-31T15:40:00;12.00;99.90
21612;DHT22;47005;52.292;13.452;2023-03-31T15:42:26;12.00;99.90
21612;DHT22;47005;52.292;13.452;2023-03-31T15:47:48;12.00;99.90
21612;DHT22;47005;52.292;13.452;2023-03-31T15:50:14;12.00;99.90
21612;DHT22;47005;52.292;13.452;2023-03-31T15:52:52;12.00;99.90
21612;DHT22;47005;52.292;13.452;2023-03-31T15:55:32;12.00;99.90
21612;DHT22;47005;52.292;13.452;2023-03-31T15:58:04;12.00;99.90
21612;DHT22;47005;52.292;13.452;2023-03-31T16:02:56;11.90;99.90
21612;DHT22;47005;52.292;13.452;2023-03-31T16:05:38;12.00;99.90
21612;DHT22;47005;52.292;13.452;2023-03-31T16:08:10;11.90;99.90
21612;DHT22;47005;52.292;13.452;2023-03-31T16:10:38;11.90;99.90
21612;DHT22;47005;52.292;13.452;2023-03-31T16:13:06;12.00;99.90
21612;DHT22;47005;52.292;13.452;2023-03-31T16:15:52;12.00;99.90
21612;DHT22;47005;52.292;13.452;2023-03-31T16:20:56;12.00;99.90
21612;DHT22;47005;52.292;13.452;2023-03-31T16:23:24;12.00;99.90
21612;DHT22;47005;52.292;13.452;2023-03-31T16:25:51;12.00;99.90
21612;DHT22;47005;52.292;13.452;2023-03-31T16:28:36;12.00;99.90
21612;DHT22;47005;52.292;13.452;2023-03-31T16:31:03;12.00;99.90
21612;DHT22;47005;52.292;13.452;2023-03-31T16:33:53;12.00;99.90
21612;DHT22;47005;52.292;13.452;2023-03-31T16:36:19;12.00;99.90
21612;DHT22;47005;52.292;13.452;2023-03-31T16:38:45;12.00;99.90
21612;DHT22;47005;52.292;13.452;2023-03-31T16:41:11;12.00;99.90
21612;DHT22;47005;52.292;13.452;2023-03-31T16:43:40;12.00;99.90
21612;DHT22;47005;52.292;13.452;2023-03-31T16:46:08;12.00;99.90
21612;DHT22;47005;52.292;13.452;2023-03-31T16:48:34;11.90;99.90
21612;DHT22;47005;52.292;13.452;2023-03-31T16:51:00;12.00;99.90
21612;DHT22;47005;52.292;13.452;2023-03-31T16:53:28;11.90;99.90
21612;DHT22;47005;52.292;13.452;2023-03-31T16:55:55;11.90;99.90
21612;DHT22;47005;52.292;13.452;2023-03-31T16:58:22;11.90;99.90
21612;DHT22;47005;52.292;13.452;2023-03-31T17:00:53;11.90;99.90
21612;DHT22;47005;52.292;13.452;2023-03-31T17:03:18;11.90;99.90
21612;DHT22;47005;52.292;13.452;2023-03-31T17:05:46;11.90;99.90
21612;DHT22;47005;52.292;13.452;2023-03-31T17:08:13;11.90;99.90
21612;DHT22;47005;52.292;13.452;2023-03-31T17:10:40;11.90;99.90
21612;DHT22;47005;52.292;13.452;2023-03-31T17:13:07;11.90;99.90
21612;DHT22;47005;52.292;13.452;2023-03-31T17:15:33;11.90;99.90
21612;DHT22;47005;52.292;13.452;2023-03-31T17:18:01;11.90;99.90
21612;DHT22;47005;52.292;13.452;2023-03-31T17:20:28;11.90;99.90
21612;DHT22;47005;52.292;13.452;2023-03-31T17:22:55;11.80;99.90
21612;DHT22;47005;52.292;13.452;2023-03-31T17:25:21;11.80;99.90
21612;DHT22;47005;52.292;13.452;2023-03-31T17:27:47;11.80;99.90
21612;DHT22;47005;52.292;13.452;2023-03-31T17:30:13;11.80;99.90
21612;DHT22;47005;52.292;13.452;2023-03-31T17:32:39;11.80;99.90
21612;DHT22;47005;52.292;13.452;2023-03-31T17:35:06;11.80;99.90
21612;DHT22;47005;52.292;13.452;2023-03-31T17:37:33;11.80;99.90
21612;DHT22;47005;52.292;13.452;2023-03-31T17:39:59;11.80;99.90
21612;DHT22;47005;52.292;13.452;2023-03-31T17:42:24;11.80;99.90
21612;DHT22;47005;52.292;13.452;2023-03-31T17:44:51;11.80;99.90
21612;DHT22;47005;52.292;13.452;2023-03-31T17:47:18;11.70;99.90
21612;DHT22;47005;52.292;13.452;2023-03-31T17:49:45;11.70;99.90
21612;DHT22;47005;52.292;13.452;2023-03-31T17:52:11;11.70;99.90
21612;DHT22;47005;52.292;13.452;2023-03-31T17:54:38;11.70;99.90
21612;DHT22;47005;52.292;13.452;2023-03-31T17:57:04;11.70;99.90
21612;DHT22;47005;52.292;13.452;2023-03-31T17:59:30;11.60;99.90
21612;DHT22;47005;52.292;13.452;2023-03-31T18:01:56;11.60;99.90
21612;DHT22;47005;52.292;13.452;2023-03-31T18:04:22;11.60;99.90
21612;DHT22;47005;52.292;13.452;2023-03-31T18:06:48;11.60;99.90
21612;DHT22;47005;52.292;13.452;2023-03-31T18:09:14;11.60;99.90
21612;DHT22;47005;52.292;13.452;2023-03-31T18:11:43;11.60;99.90
21612;DHT22;47005;52.292;13.452;2023-03-31T18:14:08;11.60;99.90
21612;DHT22;47005;52.292;13.452;2023-03-31T18:16:34;11.60;99.90
21612;DHT22;47005;52.292;13.452;2023-03-31T18:19:01;11.50;99.90
21612;DHT22;47005;52.292;13.452;2023-03-31T18:21:27;11.50;99.90
21612;DHT22;47005;52.292;13.452;2023-03-31T18:23:53;11.50;99.90
21612;DHT22;47005;52.292;13.452;2023-03-31T18:26:23;11.50;99.90
21612;DHT22;47005;52.292;13.452;2023-03-31T18:28:49;11.50;99.90
21612;DHT22;47005;52.292;13.452;2023-03-31T18:31:15;11.50;99.90
21612;DHT22;47005;52.292;13.452;2023-03-31T18:33:41;11.40;99.90
21612;DHT22;47005;52.292;13.452;2023-03-31T18:36:12;11.50;99.90
21612;DHT22;47005;52.292;13.452;2023-03-31T18:38:39;11.40;99.90
21612;DHT22;47005;52.292;13.452;2023-03-31T18:41:05;11.40;99.90
21612;DHT22;47005;52.292;13.452;2023-03-31T18:43:31;11.40;99.90
21612;DHT22;47005;52.292;13.452;2023-03-31T18:45:57;11.40;99.90
21612;DHT22;47005;52.292;13.452;2023-03-31T18:48:25;11.40;99.90
21612;DHT22;47005;52.292;13.452;2023-03-31T18:50:51;11.40;99.90